Time;durP1;ratioP1;P1;durP2;ratioP2;P2;SDS_P1;SDS_P2;PMS_P1;PMS_P2;Temp;Humidity;BMP_temperature;BMP_pressure;BME280_temperature;BME280_humidity;BME280_pressure;Samples;Min_cycle;Max_cycle;Signal;HPM_P1;HPM_P2
2024/02/07 00:00:57;;;;;;;2.97;2.47;;;6.80;99.90;;;;;;4994356;28;20530;-68
2024/02/07 00:03:22;;;;;;;4.90;3.87;;;6.70;99.90;;;;;;4985740;28;20275;-68
2024/02/07 00:05:48;;;;;;;3.10;2.80;;;6.70;99.90;;;;;;4987586;28;20534;-68
2024/02/07 00:08:14;;;;;;;3.83;2.60;;;6.60;99.90;;;;;;4991795;28;20184;-68
2024/02/07 00:10:39;;;;;;;3.90;3.00;;;6.50;99.90;;;;;;4985684;28;20658;-68
2024/02/07 00:13:05;;;;;;;4.60;2.80;;;6.50;99.90;;;;;;4989462;28;20684;-68
2024/02/07 00:15:30;;;;;;;4.00;2.53;;;6.60;99.90;;;;;;4982439;28;20234;-68
2024/02/07 00:17:57;;;;;;;4.43;2.87;;;6.60;99.90;;;;;;4975336;28;20228;-68
2024/02/07 00:20:23;;;;;;;4.03;2.30;;;6.60;99.90;;;;;;4976653;28;20219;-68
2024/02/07 00:22:49;;;;;;;5.03;2.80;;;6.50;99.90;;;;;;4994178;28;20971;-68
2024/02/07 00:25:14;;;;;;;6.43;2.50;;;6.50;99.90;;;;;;4986620;28;20171;-68
2024/02/07 00:27:40;;;;;;;3.47;2.63;;;6.50;99.90;;;;;;4985218;28;20188;-68
2024/02/07 00:30:06;;;;;;;5.47;3.10;;;6.50;99.90;;;;;;4975527;28;20184;-68
2024/02/07 00:32:31;;;;;;;6.23;3.17;;;6.50;99.90;;;;;;4994357;28;20207;-68
2024/02/07 00:34:57;;;;;;;3.07;2.50;;;6.50;99.90;;;;;;4994717;28;20423;-68
2024/02/07 00:37:22;;;;;;;4.47;3.30;;;6.50;99.90;;;;;;4989094;28;20203;-68
2024/02/07 00:39:48;;;;;;;6.43;2.77;;;6.40;99.90;;;;;;4990214;28;20544;-68
2024/02/07 00:42:13;;;;;;;4.77;3.50;;;6.40;99.90;;;;;;4986312;28;20564;-68
2024/02/07 00:44:39;;;;;;;6.23;3.77;;;6.40;99.90;;;;;;4987923;28;20650;-68
2024/02/07 00:47:05;;;;;;;6.20;3.17;;;6.40;99.90;;;;;;4983931;28;20192;-68
2024/02/07 00:49:31;;;;;;;4.90;3.20;;;6.40;99.90;;;;;;4993342;28;20494;-68
2024/02/07 00:51:57;;;;;;;4.33;2.57;;;6.40;99.90;;;;;;4987989;28;20183;-68
2024/02/07 00:54:24;;;;;;;2.80;2.50;;;6.40;99.90;;;;;;4987054;28;20509;-68
2024/02/07 00:56:49;;;;;;;4.50;2.97;;;6.40;99.90;;;;;;4986224;28;20631;-68
2024/02/07 00:59:15;;;;;;;7.70;3.37;;;6.40;99.90;;;;;;4991908;28;20425;-68
2024/02/07 01:01:40;;;;;;;3.87;3.50;;;6.40;99.90;;;;;;4983117;28;20235;-68
2024/02/07 01:04:06;;;;;;;4.90;3.13;;;6.40;99.90;;;;;;4991999;28;20217;-68
2024/02/07 01:06:31;;;;;;;4.20;2.73;;;6.40;99.90;;;;;;4982120;28;20453;-68
2024/02/07 01:08:57;;;;;;;3.63;2.80;;;6.40;99.90;;;;;;4991292;28;20176;-68
2024/02/07 01:11:23;;;;;;;4.83;2.50;;;6.40;99.90;;;;;;4989626;28;20299;-68
2024/02/07 01:13:49;;;;;;;3.67;2.53;;;6.40;99.90;;;;;;4991157;28;20199;-68
2024/02/07 01:16:15;;;;;;;4.37;2.87;;;6.40;99.90;;;;;;4987412;28;20211;-68
2024/02/07 01:18:40;;;;;;;4.70;3.20;;;6.40;99.90;;;;;;4988013;28;20935;-68
2024/02/07 01:21:09;;;;;;;4.30;2.63;;;6.40;99.90;;;;;;4987828;28;20807;-68
2024/02/07 01:23:37;;;;;;;6.10;3.90;;;6.50;99.90;;;;;;4987836;28;20275;-68
2024/02/07 01:26:03;;;;;;;7.50;3.60;;;6.50;99.90;;;;;;4984262;28;20447;-69
2024/02/07 01:28:28;;;;;;;5.80;3.20;;;6.50;99.90;;;;;;4976908;28;20841;-68
2024/02/07 01:30:55;;;;;;;3.17;2.77;;;6.50;99.90;;;;;;4988765;28;20219;-68
2024/02/07 01:33:20;;;;;;;4.50;2.77;;;6.50;99.90;;;;;;4985934;28;20225;-69
2024/02/07 01:35:46;;;;;;;6.00;3.70;;;6.60;99.90;;;;;;4984089;28;20427;-69
2024/02/07 01:38:17;;;;;;;3.70;3.40;;;6.60;99.90;;;;;;4974842;28;20239;-69
2024/02/07 01:40:45;;;;;;;5.20;3.77;;;6.60;99.90;;;;;;4983981;28;20435;-69
2024/02/07 01:43:12;;;;;;;4.23;3.37;;;6.60;99.90;;;;;;4985017;28;20516;-69
2024/02/07 01:45:38;;;;;;;3.97;3.57;;;6.60;99.90;;;;;;4980932;28;20944;-69
2024/02/07 01:48:04;;;;;;;3.10;2.77;;;6.60;99.90;;;;;;4984452;28;20508;-69
2024/02/07 01:50:30;;;;;;;4.07;3.60;;;6.60;99.90;;;;;;4985020;28;20481;-69
2024/02/07 01:53:02;;;;;;;3.57;2.43;;;6.60;99.90;;;;;;4982192;28;20538;-69
2024/02/07 01:55:28;;;;;;;3.30;2.57;;;6.60;99.90;;;;;;4965333;28;20518;-69
2024/02/07 01:57:55;;;;;;;5.37;3.40;;;6.60;99.90;;;;;;4984185;28;20621;-69
2024/02/07 02:00:21;;;;;;;3.73;3.20;;;6.70;99.90;;;;;;4981998;28;20442;-69
2024/02/07 02:02:48;;;;;;;4.90;3.10;;;6.60;99.90;;;;;;4984963;28;20816;-70
2024/02/07 02:05:14;;;;;;;2.93;2.73;;;6.70;99.90;;;;;;4993211;28;20422;-69
2024/02/07 02:07:40;;;;;;;3.83;2.63;;;6.60;99.90;;;;;;4992389;28;20438;-69
2024/02/07 02:10:06;;;;;;;6.90;3.00;;;6.70;99.90;;;;;;4990460;28;20179;-69
2024/02/07 02:12:32;;;;;;;4.90;2.83;;;6.70;99.90;;;;;;4985037;28;21050;-69
2024/02/07 02:14:58;;;;;;;3.80;2.40;;;6.70;99.90;;;;;;4991569;28;20179;-69
2024/02/07 02:17:23;;;;;;;4.70;2.80;;;6.70;99.90;;;;;;4978297;28;20196;-69
2024/02/07 02:19:52;;;;;;;3.33;2.83;;;6.70;99.90;;;;;;4973443;28;20490;-69
2024/02/07 02:22:48;;;;;;;4.40;3.10;;;6.70;99.90;;;;;;4956197;28;20708;-69
2024/02/07 02:25:36;;;;;;;4.43;3.10;;;6.80;99.90;;;;;;4980131;28;20434;-69
2024/02/07 02:28:27;;;;;;;4.23;3.37;;;6.70;99.90;;;;;;4987920;28;20925;-69
2024/02/07 02:30:58;;;;;;;3.10;2.80;;;6.70;99.90;;;;;;4984560;28;20434;-70
2024/02/07 02:33:26;;;;;;;4.60;3.07;;;6.70;99.90;;;;;;4973234;28;20471;-69
2024/02/07 02:35:53;;;;;;;8.23;3.67;;;6.70;99.90;;;;;;4973200;28;20534;-69
2024/02/07 02:38:22;;;;;;;3.13;2.83;;;6.70;99.90;;;;;;4988573;28;20477;-69
2024/02/07 02:40:48;;;;;;;3.50;2.70;;;6.70;99.90;;;;;;4983283;28;20434;-69
2024/02/07 02:43:14;;;;;;;3.47;3.17;;;6.70;99.90;;;;;;4984371;28;20462;-69
2024/02/07 02:45:40;;;;;;;4.97;2.97;;;6.70;99.90;;;;;;4985119;28;20499;-69
2024/02/07 02:48:06;;;;;;;5.37;2.83;;;6.70;99.90;;;;;;4988257;28;20610;-69
2024/02/07 02:50:32;;;;;;;5.40;2.63;;;6.70;99.90;;;;;;4987683;28;20442;-69
2024/02/07 02:52:58;;;;;;;5.67;2.87;;;6.70;99.90;;;;;;4984326;28;20816;-70
2024/02/07 02:55:25;;;;;;;3.70;2.90;;;6.70;99.90;;;;;;4991219;28;20182;-69
2024/02/07 02:57:51;;;;;;;3.70;2.80;;;6.70;99.90;;;;;;4985259;28;20819;-70
2024/02/07 03:00:20;;;;;;;3.07;2.80;;;6.70;99.90;;;;;;4985071;28;20434;-69
2024/02/07 03:02:46;;;;;;;4.63;3.20;;;6.80;99.90;;;;;;4983690;28;20294;-69
2024/02/07 03:08:05;;;;;;;3.30;3.00;;;6.80;99.90;;;;;;4984002;28;20468;-69
2024/02/07 03:10:33;;;;;;;3.93;2.90;;;6.80;99.90;;;;;;4990091;28;20480;-69
2024/02/07 03:12:59;;;;;;;4.47;3.43;;;6.80;99.90;;;;;;4983122;28;20448;-70
2024/02/07 03:15:25;;;;;;;3.90;3.30;;;6.80;99.90;;;;;;4983575;28;20434;-69
2024/02/07 03:17:51;;;;;;;3.60;2.60;;;6.80;99.90;;;;;;4980279;28;20724;-69
2024/02/07 03:20:17;;;;;;;3.83;3.33;;;6.90;99.90;;;;;;4982732;28;20431;-69
2024/02/07 03:22:42;;;;;;;3.50;3.20;;;6.90;99.90;;;;;;4988117;28;20203;-70
2024/02/07 03:25:16;;;;;;;5.03;2.83;;;6.90;99.90;;;;;;4989532;28;20222;-70
2024/02/07 03:27:44;;;;;;;5.27;3.97;;;6.90;99.90;;;;;;4986461;28;20550;-69
2024/02/07 03:30:11;;;;;;;5.43;4.13;;;6.90;99.90;;;;;;4987062;28;20431;-70
2024/02/07 03:32:38;;;;;;;4.07;3.00;;;6.90;99.90;;;;;;4994927;28;20462;-69
2024/02/07 03:35:04;;;;;;;3.70;3.00;;;6.90;99.90;;;;;;4995652;28;20436;-70
2024/02/07 03:37:30;;;;;;;9.80;3.87;;;7.00;99.90;;;;;;4987186;28;20469;-69
2024/02/07 03:39:55;;;;;;;3.53;3.23;;;6.90;99.90;;;;;;4994201;28;20419;-70
2024/02/07 03:42:21;;;;;;;4.73;3.60;;;7.00;99.90;;;;;;4993979;28;20720;-69
2024/02/07 03:44:59;;;;;;;5.00;3.50;;;7.00;99.90;;;;;;4995574;28;20175;-70
2024/02/07 03:47:25;;;;;;;3.97;3.50;;;7.00;99.90;;;;;;4989132;28;20191;-70
2024/02/07 03:49:51;;;;;;;3.17;2.63;;;7.00;99.90;;;;;;4994998;28;20565;-70
2024/02/07 03:52:19;;;;;;;3.73;2.70;;;7.00;99.90;;;;;;4986855;28;20465;-70
2024/02/07 03:54:51;;;;;;;3.80;2.17;;;7.00;99.90;;;;;;4992176;28;20528;-70
2024/02/07 03:57:20;;;;;;;6.60;3.80;;;7.00;99.90;;;;;;4987981;28;20505;-70
2024/02/07 03:59:50;;;;;;;3.00;2.70;;;7.10;99.90;;;;;;4982941;28;20430;-70
2024/02/07 04:02:22;;;;;;;3.20;2.80;;;7.10;99.90;;;;;;4987614;28;20461;-70
2024/02/07 04:04:50;;;;;;;5.77;3.40;;;7.10;99.90;;;;;;4994420;28;20427;-70
2024/02/07 04:07:23;;;;;;;3.80;3.50;;;7.10;99.90;;;;;;4993005;28;20439;-70
2024/02/07 04:09:49;;;;;;;3.77;3.07;;;7.10;99.90;;;;;;4992935;28;20885;-70
2024/02/07 05:17:26;;;;;;;3.17;2.17;;;7.80;99.90;;;;;;4984124;28;20502;-70
2024/02/07 05:19:51;;;;;;;2.73;2.47;;;7.80;99.90;;;;;;4987844;28;20439;-70
2024/02/07 05:22:17;;;;;;;3.20;2.90;;;7.80;99.90;;;;;;4989009;28;20483;-70
2024/02/07 05:24:45;;;;;;;4.60;2.70;;;7.80;99.90;;;;;;4987134;28;20168;-70
2024/02/07 05:27:12;;;;;;;5.53;2.30;;;7.70;99.90;;;;;;4983244;28;20431;-69
2024/02/07 05:29:41;;;;;;;5.43;2.83;;;7.70;99.90;;;;;;4965334;28;20962;-70
2024/02/07 05:32:07;;;;;;;3.90;2.63;;;7.70;99.90;;;;;;4993355;28;20489;-69
2024/02/07 05:34:36;;;;;;;3.83;2.47;;;7.70;99.90;;;;;;4991353;28;20447;-69
2024/02/07 05:37:03;;;;;;;5.07;3.30;;;7.70;99.90;;;;;;4985971;28;20554;-70
2024/02/07 05:39:35;;;;;;;6.40;2.50;;;7.70;99.90;;;;;;4985507;28;20805;-70
2024/02/07 05:42:01;;;;;;;3.57;2.80;;;7.80;99.90;;;;;;4985224;28;20471;-70
2024/02/07 05:44:27;;;;;;;5.17;3.33;;;7.80;99.90;;;;;;4984270;28;20471;-70
2024/02/07 05:46:53;;;;;;;2.87;2.67;;;7.80;99.90;;;;;;4991725;28;20827;-70
2024/02/07 05:49:18;;;;;;;4.67;3.67;;;7.80;99.90;;;;;;4981741;28;20439;-70
2024/02/07 05:51:56;;;;;;;4.20;3.30;;;7.70;99.90;;;;;;4981165;28;20192;-70
2024/02/07 05:54:22;;;;;;;4.03;3.00;;;7.80;99.90;;;;;;4975230;28;20692;-70
2024/02/07 05:56:47;;;;;;;3.20;2.90;;;7.70;99.90;;;;;;4984832;28;20435;-72
2024/02/07 05:59:13;;;;;;;5.70;2.90;;;7.80;99.90;;;;;;4990024;28;20178;-70
2024/02/07 06:01:38;;;;;;;3.70;2.60;;;7.80;99.90;;;;;;4985979;28;20211;-70
2024/02/07 06:04:07;;;;;;;3.63;3.33;;;7.80;99.90;;;;;;4979972;28;20677;-70
2024/02/07 06:06:32;;;;;;;3.00;2.60;;;7.80;99.90;;;;;;4979852;28;20176;-70
2024/02/07 06:08:58;;;;;;;7.70;5.50;;;7.80;99.90;;;;;;4973789;28;20424;-69
2024/02/07 06:11:31;;;;;;;3.30;3.00;;;7.80;99.90;;;;;;4983657;28;20530;-70
2024/02/07 06:13:58;;;;;;;2.80;2.57;;;7.80;99.90;;;;;;4976458;28;20522;-70
2024/02/07 06:16:23;;;;;;;7.30;3.20;;;7.80;99.90;;;;;;4985533;28;20449;-70
2024/02/07 06:18:48;;;;;;;3.50;3.17;;;7.80;99.90;;;;;;4984578;28;20455;-70
2024/02/07 06:21:14;;;;;;;4.10;3.37;;;7.80;99.90;;;;;;4985195;28;20212;-70
2024/02/07 06:23:40;;;;;;;4.83;2.97;;;7.80;99.90;;;;;;4987779;28;20270;-70
2024/02/07 06:26:05;;;;;;;4.37;3.50;;;7.80;99.90;;;;;;4990403;28;20215;-70
2024/02/07 06:28:31;;;;;;;6.13;3.80;;;7.80;99.90;;;;;;4981960;28;20175;-70
2024/02/07 06:30:56;;;;;;;4.20;3.20;;;7.80;99.90;;;;;;4977262;28;20702;-70
2024/02/07 06:33:22;;;;;;;6.00;3.60;;;7.80;99.90;;;;;;4987389;28;20219;-70
2024/02/07 06:35:48;;;;;;;4.90;3.60;;;7.80;99.90;;;;;;4984414;28;20179;-70
2024/02/07 06:38:13;;;;;;;10.00;3.47;;;7.90;99.90;;;;;;4974690;28;20207;-70
2024/02/07 06:40:39;;;;;;;5.70;3.63;;;7.90;99.90;;;;;;4991126;28;20453;-69
2024/02/07 06:43:05;;;;;;;4.57;3.30;;;7.90;99.90;;;;;;4988044;28;20200;-70
2024/02/07 06:45:31;;;;;;;4.17;3.70;;;7.90;99.90;;;;;;4984187;28;20190;-70
2024/02/07 06:47:56;;;;;;;10.63;4.53;;;8.00;99.90;;;;;;4990160;28;20257;-70
2024/02/07 06:50:24;;;;;;;4.90;3.20;;;8.00;99.90;;;;;;4985590;28;20182;-70
2024/02/07 06:52:49;;;;;;;7.33;3.90;;;8.00;99.90;;;;;;4982575;28;20572;-71
2024/02/07 06:55:16;;;;;;;4.17;3.73;;;8.00;99.90;;;;;;4987717;28;20450;-70
2024/02/07 06:57:41;;;;;;;4.77;3.50;;;8.10;99.90;;;;;;4991504;28;20213;-70
2024/02/07 07:00:07;;;;;;;3.37;3.07;;;8.10;99.90;;;;;;4990647;28;20435;-70
2024/02/07 07:02:33;;;;;;;4.93;3.37;;;8.20;99.90;;;;;;4981927;28;20205;-70
2024/02/07 07:04:58;;;;;;;5.20;3.53;;;8.20;99.90;;;;;;4989752;28;20438;-71
2024/02/07 07:07:24;;;;;;;6.03;3.57;;;8.20;99.90;;;;;;4993361;28;20206;-69
2024/02/07 07:09:49;;;;;;;6.80;3.40;;;8.20;99.90;;;;;;4992198;28;20207;-71
2024/02/07 07:12:16;;;;;;;3.60;3.30;;;8.20;99.90;;;;;;4993793;28;20254;-71
2024/02/07 07:14:42;;;;;;;4.80;3.70;;;8.20;99.90;;;;;;4989541;28;20176;-71
2024/02/07 07:17:08;;;;;;;5.10;3.70;;;8.30;99.90;;;;;;4986288;28;20485;-71
2024/02/07 07:19:34;;;;;;;4.40;3.30;;;8.30;99.90;;;;;;4991960;28;20915;-72
2024/02/07 07:21:59;;;;;;;5.23;3.30;;;8.30;99.90;;;;;;4979558;28;20200;-72
2024/02/07 07:24:25;;;;;;;5.97;3.70;;;8.30;99.90;;;;;;4976718;28;20187;-71
2024/02/07 07:26:50;;;;;;;7.80;3.40;;;8.30;99.90;;;;;;4980433;28;20696;-71
2024/02/07 07:29:17;;;;;;;3.50;2.73;;;8.30;99.90;;;;;;4996109;28;20171;-72
2024/02/07 07:31:42;;;;;;;8.30;3.70;;;8.30;99.90;;;;;;4978468;28;20181;-71
2024/02/07 07:34:08;;;;;;;4.73;3.60;;;8.40;99.90;;;;;;4994769;28;20501;-70
2024/02/07 07:36:33;;;;;;;5.70;3.33;;;8.40;99.90;;;;;;4995712;28;20215;-70
2024/02/07 07:38:59;;;;;;;4.13;3.73;;;8.40;99.90;;;;;;4978225;28;20282;-70
2024/02/07 07:41:24;;;;;;;3.70;3.30;;;8.40;99.90;;;;;;4995868;28;20218;-70
2024/02/07 07:43:51;;;;;;;9.83;3.87;;;8.40;99.90;;;;;;4993632;28;20206;-70
2024/02/07 07:46:17;;;;;;;5.57;4.80;;;8.50;99.90;;;;;;4982015;28;20645;-70
2024/02/07 07:48:43;;;;;;;5.67;3.00;;;8.50;99.90;;;;;;4995544;28;20427;-70
2024/02/07 07:51:08;;;;;;;5.00;3.30;;;8.50;99.90;;;;;;4993986;28;20180;-70
2024/02/07 07:53:34;;;;;;;5.63;4.77;;;8.50;99.90;;;;;;4995603;28;20231;-70
2024/02/07 07:55:59;;;;;;;4.03;3.63;;;8.60;99.90;;;;;;4977282;28;20207;-70
2024/02/07 07:58:25;;;;;;;5.40;3.40;;;8.60;99.90;;;;;;4975879;28;20199;-70
2024/02/07 08:00:50;;;;;;;4.37;3.70;;;8.60;99.90;;;;;;4976248;28;20176;-69
2024/02/07 08:03:16;;;;;;;6.10;3.23;;;8.60;99.90;;;;;;4976061;28;20192;-70
2024/02/07 08:05:41;;;;;;;7.70;4.33;;;8.70;99.90;;;;;;4976872;28;20204;-70
2024/02/07 08:08:10;;;;;;;3.17;2.80;;;8.70;99.90;;;;;;4975156;28;20208;-69
2024/02/07 08:10:36;;;;;;;7.00;3.80;;;8.70;99.90;;;;;;4975984;28;20295;-70
2024/02/07 08:13:03;;;;;;;8.33;3.87;;;8.70;99.90;;;;;;4958393;28;20475;-70
2024/02/07 08:15:28;;;;;;;5.60;3.07;;;8.80;99.90;;;;;;4975994;28;20503;-70
2024/02/07 08:17:54;;;;;;;4.57;3.30;;;8.80;99.90;;;;;;4975452;28;20558;-70
2024/02/07 08:20:24;;;;;;;9.13;5.23;;;8.80;99.90;;;;;;4976764;28;20219;-71
2024/02/07 08:22:49;;;;;;;7.07;3.60;;;8.80;99.90;;;;;;4975605;28;20184;-70
2024/02/07 08:25:15;;;;;;;7.83;2.90;;;8.80;99.90;;;;;;4983422;28;20428;-70
2024/02/07 08:27:40;;;;;;;7.43;3.73;;;8.80;99.90;;;;;;4975237;28;20596;-70
2024/02/07 08:30:06;;;;;;;4.50;2.87;;;8.80;99.90;;;;;;4975520;28;20601;-70
2024/02/07 08:32:32;;;;;;;4.73;3.87;;;8.90;99.90;;;;;;4975364;28;20220;-70
2024/02/07 08:34:58;;;;;;;6.80;3.90;;;8.90;99.90;;;;;;4980585;28;20813;-70
2024/02/07 08:37:26;;;;;;;5.63;4.40;;;8.90;99.90;;;;;;4975127;28;20546;-70
2024/02/07 08:39:52;;;;;;;5.53;4.90;;;8.90;99.90;;;;;;4975336;28;20558;-70
2024/02/07 08:42:18;;;;;;;6.17;3.63;;;8.90;99.90;;;;;;4975180;28;20442;-70
2024/02/07 08:44:43;;;;;;;3.87;3.40;;;9.00;99.90;;;;;;4981841;28;20423;-70
2024/02/07 08:47:09;;;;;;;4.00;3.00;;;9.00;99.90;;;;;;4994420;28;20183;-70
2024/02/07 08:49:34;;;;;;;5.13;3.00;;;9.00;99.90;;;;;;4992894;28;20187;-70
2024/02/07 08:52:00;;;;;;;5.10;3.20;;;9.00;99.90;;;;;;4994443;28;20196;-70
2024/02/07 08:54:25;;;;;;;6.40;3.30;;;9.00;99.90;;;;;;4990197;28;20192;-70
2024/02/07 08:56:51;;;;;;;5.07;3.80;;;9.10;99.90;;;;;;4957303;28;20599;-70
2024/02/07 08:59:16;;;;;;;4.93;3.37;;;9.10;99.90;;;;;;4975195;28;20223;-70
2024/02/07 09:01:42;;;;;;;5.10;4.50;;;9.10;99.90;;;;;;4974964;28;20169;-70
2024/02/07 09:04:07;;;;;;;4.17;3.73;;;9.10;99.90;;;;;;4976009;28;20211;-70
2024/02/07 09:06:33;;;;;;;11.77;4.00;;;9.10;99.90;;;;;;4974635;28;20520;-70
2024/02/07 09:08:58;;;;;;;7.23;3.50;;;9.10;99.90;;;;;;4975023;28;20207;-70
2024/02/07 09:11:24;;;;;;;4.63;3.20;;;9.10;99.90;;;;;;4975316;28;20184;-70
2024/02/07 09:13:49;;;;;;;3.43;3.10;;;9.10;99.90;;;;;;4974883;28;20196;-70
2024/02/07 09:16:15;;;;;;;5.50;3.33;;;9.10;99.90;;;;;;5002379;28;20510;-70
2024/02/07 09:18:41;;;;;;;6.43;3.53;;;9.10;99.90;;;;;;5008233;28;20204;-70
2024/02/07 09:21:07;;;;;;;3.80;3.47;;;9.20;99.90;;;;;;5006063;28;20183;-70
2024/02/07 09:23:32;;;;;;;6.67;4.67;;;9.20;99.90;;;;;;5008352;28;20439;-70
2024/02/07 09:25:58;;;;;;;3.53;3.23;;;9.20;99.90;;;;;;5009350;28;20184;-70
2024/02/07 09:28:23;;;;;;;4.97;4.17;;;9.20;99.90;;;;;;5009247;28;20637;-70
2024/02/07 09:30:49;;;;;;;4.90;3.07;;;9.20;99.90;;;;;;5006498;28;20198;-70
2024/02/07 09:33:14;;;;;;;5.00;3.60;;;9.20;99.90;;;;;;5005848;28;20215;-69
2024/02/07 09:35:41;;;;;;;9.83;4.27;;;9.30;99.90;;;;;;4993222;28;20183;-70
2024/02/07 09:38:06;;;;;;;7.83;4.57;;;9.30;99.90;;;;;;4994039;28;20227;-70
2024/02/07 09:40:32;;;;;;;6.07;3.40;;;9.30;99.90;;;;;;4981001;28;20446;-69
2024/02/07 09:43:00;;;;;;;5.43;4.30;;;9.30;99.90;;;;;;5001063;28;20588;-70
2024/02/07 09:45:31;;;;;;;7.43;5.73;;;9.40;99.90;;;;;;5000256;28;20180;-70
2024/02/07 09:48:19;;;;;;;4.87;4.40;;;9.40;99.90;;;;;;5001690;28;20434;-70
2024/02/07 09:50:47;;;;;;;5.00;3.73;;;9.40;99.90;;;;;;4992515;28;20466;-69
2024/02/07 09:53:15;;;;;;;6.53;4.83;;;9.50;99.90;;;;;;4992924;28;20454;-70
2024/02/07 09:55:42;;;;;;;9.27;4.10;;;9.50;99.90;;;;;;4974016;28;20438;-70
2024/02/07 09:58:08;;;;;;;5.10;3.57;;;9.50;99.90;;;;;;4973670;28;20455;-70
2024/02/07 10:00:35;;;;;;;5.80;4.80;;;9.60;99.90;;;;;;4974015;28;20506;-70
2024/02/07 10:03:05;;;;;;;8.23;3.77;;;9.60;99.90;;;;;;4973750;28;20513;-70
2024/02/07 10:05:33;;;;;;;5.23;3.63;;;9.60;99.90;;;;;;4976013;28;20432;-70
2024/02/07 10:08:00;;;;;;;9.37;3.70;;;9.70;99.90;;;;;;4973854;28;20446;-70
2024/02/07 10:10:26;;;;;;;4.47;3.70;;;9.80;99.10;;;;;;4973869;28;20439;-69
2024/02/07 10:12:56;;;;;;;3.37;3.07;;;9.80;99.90;;;;;;4973653;28;20567;-70
2024/02/07 10:15:23;;;;;;;3.93;3.60;;;9.80;98.20;;;;;;4977182;28;20431;-70
2024/02/07 10:17:49;;;;;;;4.93;3.23;;;9.80;97.80;;;;;;4992622;28;20506;-69
2024/02/07 10:20:15;;;;;;;4.30;3.50;;;9.80;98.40;;;;;;4991331;28;20460;-70
2024/02/07 10:22:41;;;;;;;4.93;3.67;;;9.90;96.90;;;;;;4992926;28;20211;-70
2024/02/07 10:25:14;;;;;;;3.70;3.00;;;9.90;98.20;;;;;;4991534;28;20179;-70
2024/02/07 10:27:40;;;;;;;5.47;3.07;;;9.90;94.50;;;;;;4992692;28;20422;-70
2024/02/07 10:30:08;;;;;;;7.60;3.23;;;10.00;94.30;;;;;;4992902;28;20485;-70
2024/02/07 10:32:34;;;;;;;2.77;2.47;;;10.00;93.20;;;;;;4992366;28;20470;-70
2024/02/07 10:35:00;;;;;;;3.10;2.80;;;10.10;93.00;;;;;;4985121;28;20959;-70
2024/02/07 10:37:26;;;;;;;3.73;3.00;;;10.10;92.70;;;;;;4983328;28;20463;-70
2024/02/07 10:40:02;;;;;;;3.23;2.90;;;10.10;92.10;;;;;;4992700;28;20168;-70
2024/02/07 10:42:28;;;;;;;3.73;2.67;;;10.20;89.50;;;;;;4992454;28;20187;-69
2024/02/07 10:45:03;;;;;;;3.97;2.77;;;10.30;85.80;;;;;;4991951;28;20437;-69
2024/02/07 10:47:29;;;;;;;6.00;4.80;;;10.30;87.10;;;;;;4992362;28;20179;-70
2024/02/07 10:49:55;;;;;;;5.73;2.73;;;10.30;88.10;;;;;;4990953;28;20449;-70
2024/02/07 10:52:21;;;;;;;6.20;3.00;;;10.30;90.60;;;;;;4992579;28;20202;-70
2024/02/07 10:54:47;;;;;;;5.67;3.07;;;10.40;89.30;;;;;;4984147;28;20518;-70
2024/02/07 10:57:14;;;;;;;3.30;3.00;;;10.40;83.60;;;;;;4973111;28;20945;-70
2024/02/07 10:59:40;;;;;;;8.57;3.20;;;10.30;90.50;;;;;;4973117;28;20630;-70
2024/02/07 11:02:14;;;;;;;2.90;2.57;;;10.30;88.90;;;;;;4973247;28;20452;-70
2024/02/07 11:04:40;;;;;;;5.83;3.03;;;10.30;89.00;;;;;;4978887;28;20433;-70
2024/02/07 11:07:13;;;;;;;3.00;2.60;;;10.30;91.80;;;;;;4992251;28;20916;-70
2024/02/07 11:09:43;;;;;;;6.50;3.50;;;10.20;93.80;;;;;;4992454;28;20773;-70
2024/02/07 11:12:18;;;;;;;5.53;3.27;;;10.10;95.20;;;;;;4974983;28;20442;-70
2024/02/07 11:14:45;;;;;;;3.60;3.30;;;10.20;94.60;;;;;;4967730;28;20805;-70
2024/02/07 11:17:16;;;;;;;3.53;3.23;;;10.20;94.60;;;;;;4974917;28;20475;-70
2024/02/07 11:19:43;;;;;;;2.83;2.63;;;10.30;94.40;;;;;;4990834;28;20423;-70
2024/02/07 11:22:22;;;;;;;5.90;3.40;;;10.20;93.00;;;;;;4992212;28;20462;-70
2024/02/07 11:24:50;;;;;;;3.43;2.93;;;10.10;94.60;;;;;;4991626;28;20423;-70
2024/02/07 11:27:16;;;;;;;3.47;3.00;;;10.10;96.50;;;;;;4980201;28;21012;-70
2024/02/07 11:29:42;;;;;;;3.63;2.87;;;10.10;97.10;;;;;;4972794;28;20435;-70
2024/02/07 11:32:09;;;;;;;7.57;3.47;;;10.20;95.70;;;;;;4972669;28;20223;-70
2024/02/07 11:34:40;;;;;;;10.93;3.03;;;10.20;92.60;;;;;;4973826;28;20427;-70
2024/02/07 11:37:10;;;;;;;3.73;3.43;;;10.30;91.50;;;;;;4972648;28;20438;-70
2024/02/07 11:39:41;;;;;;;4.73;3.20;;;10.30;90.70;;;;;;4972946;28;20435;-70
2024/02/07 11:42:18;;;;;;;2.37;1.90;;;10.30;90.40;;;;;;4972771;28;20868;-70
2024/02/07 11:44:49;;;;;;;4.73;2.77;;;10.30;87.20;;;;;;4978739;28;20939;-70
2024/02/07 11:47:30;;;;;;;4.00;3.07;;;10.40;84.30;;;;;;4966760;28;20461;-70
2024/02/07 11:50:04;;;;;;;4.90;2.90;;;10.50;84.20;;;;;;4977339;28;20780;-70
2024/02/07 11:52:38;;;;;;;4.57;3.40;;;10.60;77.30;;;;;;4976245;28;20489;-70
2024/02/07 11:55:14;;;;;;;3.93;2.30;;;10.60;76.10;;;;;;4984207;28;20457;-70
2024/02/07 11:57:42;;;;;;;2.70;2.50;;;10.60;74.10;;;;;;4995291;28;20505;-70
2024/02/07 12:00:10;;;;;;;5.37;2.90;;;10.70;71.80;;;;;;4995459;28;20904;-70
2024/02/07 12:02:36;;;;;;;6.97;2.70;;;10.70;71.50;;;;;;4995553;28;20450;-70
2024/02/07 12:05:05;;;;;;;2.77;2.27;;;10.70;70.20;;;;;;4988471;28;20442;-70
2024/02/07 12:07:31;;;;;;;2.83;2.27;;;10.70;67.80;;;;;;4975676;28;20713;-70
2024/02/07 12:09:57;;;;;;;3.43;2.20;;;10.80;69.30;;;;;;4975870;28;20807;-70
2024/02/07 12:12:24;;;;;;;4.13;2.50;;;10.90;61.70;;;;;;4975721;28;20452;-70
2024/02/07 12:14:50;;;;;;;2.37;1.70;;;11.00;57.70;;;;;;4981282;28;20187;-70
2024/02/07 12:17:16;;;;;;;3.50;2.57;;;11.00;56.80;;;;;;4994872;28;20582;-70
2024/02/07 12:19:44;;;;;;;2.33;1.90;;;11.00;55.40;;;;;;4993495;28;20455;-70
2024/02/07 12:22:17;;;;;;;2.63;2.40;;;11.10;56.60;;;;;;4995254;28;20218;-70
2024/02/07 12:24:44;;;;;;;2.40;2.03;;;11.10;56.00;;;;;;4995094;28;20426;-70
2024/02/07 12:27:14;;;;;;;2.90;1.83;;;11.10;53.70;;;;;;4994721;28;20473;-70
2024/02/07 12:29:46;;;;;;;6.57;1.80;;;11.10;53.30;;;;;;4994224;28;20447;-70
2024/02/07 12:32:12;;;;;;;2.60;1.70;;;11.00;51.40;;;;;;4994988;28;21062;-70
2024/02/07 12:34:40;;;;;;;3.37;2.00;;;11.10;54.30;;;;;;4994293;28;20502;-70
2024/02/07 12:37:06;;;;;;;2.27;1.60;;;11.10;54.40;;;;;;4993920;28;20625;-70
2024/02/07 12:39:31;;;;;;;8.27;7.13;;;11.10;56.30;;;;;;4993604;28;20844;-70
2024/02/07 12:42:03;;;;;;;2.53;2.00;;;11.10;58.50;;;;;;4975427;28;20419;-70
2024/02/07 12:44:29;;;;;;;2.60;2.40;;;11.00;58.00;;;;;;4975351;28;20626;-70
2024/02/07 12:46:54;;;;;;;2.30;2.10;;;10.80;59.30;;;;;;4974982;28;20435;-70
2024/02/07 12:49:20;;;;;;;2.17;1.50;;;10.80;60.00;;;;;;4975071;28;20231;-70
2024/02/07 12:51:46;;;;;;;1.87;1.77;;;10.70;67.70;;;;;;4992557;28;20187;-70
2024/02/07 12:54:11;;;;;;;2.27;2.07;;;10.70;73.50;;;;;;4994347;28;20215;-70
2024/02/07 12:56:37;;;;;;;2.60;2.00;;;10.80;67.60;;;;;;4994218;28;20203;-70
2024/02/07 12:59:02;;;;;;;2.37;2.00;;;10.80;68.60;;;;;;4994269;28;20592;-70
2024/02/07 13:01:28;;;;;;;2.37;2.17;;;10.80;66.50;;;;;;4979005;28;20187;-70
2024/02/07 13:03:53;;;;;;;3.60;3.30;;;10.90;66.50;;;;;;4974959;28;20219;-70
2024/02/07 13:06:20;;;;;;;3.10;2.23;;;10.80;64.20;;;;;;4984595;28;20175;-70
2024/02/07 13:08:47;;;;;;;2.03;1.83;;;10.80;73.00;;;;;;4994039;28;20167;-70
2024/02/07 13:11:12;;;;;;;3.47;2.23;;;10.90;72.00;;;;;;4963639;28;20840;-70
2024/02/07 13:13:38;;;;;;;2.13;1.93;;;10.90;65.10;;;;;;4974625;28;20442;-70
2024/02/07 13:16:04;;;;;;;3.23;2.37;;;10.90;64.70;;;;;;4974638;28;20207;-70
2024/02/07 13:18:29;;;;;;;3.03;2.50;;;11.00;57.80;;;;;;4974231;28;20200;-70
2024/02/07 13:20:55;;;;;;;3.30;2.37;;;11.10;53.50;;;;;;4975648;28;20173;-70
2024/02/07 13:23:23;;;;;;;2.90;2.27;;;11.10;51.90;;;;;;4974518;28;20192;-70
2024/02/07 13:25:50;;;;;;;3.33;1.80;;;11.10;52.30;;;;;;4974517;28;20575;-70
2024/02/07 13:28:16;;;;;;;1.67;1.57;;;11.20;46.10;;;;;;4974048;28;20431;-70
2024/02/07 13:30:41;;;;;;;2.93;2.40;;;11.20;44.10;;;;;;4974496;28;20805;-70
2024/02/07 13:33:07;;;;;;;3.73;1.97;;;11.30;44.80;;;;;;5003663;23;20231;-70
2024/02/07 13:35:33;;;;;;;3.10;1.83;;;11.30;39.20;;;;;;4981866;28;20180;-71
2024/02/07 13:38:00;;;;;;;2.37;2.00;;;11.30;35.40;;;;;;4973750;28;20242;-71
2024/02/07 13:40:26;;;;;;;1.83;1.53;;;11.20;36.20;;;;;;4975343;28;20168;-71
2024/02/07 13:42:53;;;;;;;2.70;1.93;;;11.20;36.60;;;;;;4974232;28;20442;-71
2024/02/07 13:45:19;;;;;;;2.60;1.80;;;11.10;38.70;;;;;;4974347;28;20803;-71
2024/02/07 13:47:46;;;;;;;2.30;2.10;;;11.10;38.20;;;;;;4973877;28;20992;-71
2024/02/07 13:50:11;;;;;;;3.03;1.87;;;11.00;41.40;;;;;;4975185;28;20514;-71
2024/02/07 13:52:37;;;;;;;2.33;2.07;;;11.00;40.00;;;;;;4973991;28;20582;-72
2024/02/07 13:55:03;;;;;;;2.20;1.67;;;11.00;42.50;;;;;;4973934;28;20183;-71
2024/02/07 13:57:29;;;;;;;1.87;1.67;;;10.90;41.00;;;;;;4973492;28;20514;-71
2024/02/07 13:59:54;;;;;;;1.97;1.50;;;10.90;44.30;;;;;;4973859;28;20455;-71